createdAt,value
2022-10-17T00:00:47.694Z,61.64
2022-10-17T00:02:50.345Z,61.27
2022-10-17T00:04:52.956Z,61.68
2022-10-17T00:06:56.987Z,61.59
2022-10-17T00:08:59.591Z,61.46
2022-10-17T00:11:03.887Z,61.64
2022-10-17T00:13:06.984Z,61.62
2022-10-17T00:15:10.201Z,61.63
2022-10-17T00:17:12.913Z,62.15
2022-10-17T00:19:15.503Z,61.52
2022-10-17T00:21:18.939Z,61.64
2022-10-17T00:23:22.970Z,61.63
2022-10-17T00:25:25.576Z,61.67
2022-10-17T00:27:28.319Z,61.64
2022-10-17T00:29:31.251Z,61.67
2022-10-17T00:31:33.829Z,61.76
2022-10-17T00:33:37.014Z,61.50
2022-10-17T00:35:39.637Z,61.68
2022-10-17T00:37:42.216Z,61.73
2022-10-17T00:39:46.193Z,61.60
2022-10-17T00:41:48.843Z,61.81
2022-10-17T00:43:57.015Z,61.57
2022-10-17T00:45:59.613Z,61.67
2022-10-17T00:48:06.105Z,61.74
2022-10-17T00:50:10.417Z,61.83
2022-10-17T00:52:16.504Z,61.64
2022-10-17T00:54:24.165Z,61.60
2022-10-17T00:56:34.213Z,61.58
2022-10-17T00:58:36.841Z,61.77
2022-10-17T01:00:39.613Z,61.96
2022-10-17T01:02:42.353Z,61.87
2022-10-17T01:04:47.679Z,61.89
2022-10-17T01:06:50.278Z,61.77
2022-10-17T01:08:53.117Z,61.68
2022-10-17T01:11:06.268Z,61.92
2022-10-17T01:13:18.784Z,61.93
2022-10-17T01:15:33.700Z,61.84
2022-10-17T01:17:48.150Z,61.91
2022-10-17T01:20:07.909Z,61.72
2022-10-17T01:22:13.954Z,61.73
2022-10-17T01:24:50.030Z,61.85
2022-10-17T01:27:19.025Z,61.82
2022-10-17T01:29:42.660Z,61.87
2022-10-17T01:31:49.778Z,61.82
2022-10-17T01:34:01.450Z,61.80
2022-10-17T01:36:12.163Z,62.16
2022-10-17T01:38:19.723Z,62.03
2022-10-17T01:40:28.018Z,62.05
2022-10-17T01:42:37.312Z,61.87
2022-10-17T01:44:47.531Z,61.90
2022-10-17T01:46:53.231Z,62.10
2022-10-17T01:48:59.229Z,61.67
2022-10-17T01:51:07.532Z,61.62
2022-10-17T01:53:14.915Z,62.00
2022-10-17T01:55:22.057Z,61.90
2022-10-17T01:57:30.632Z,62.31
2022-10-17T01:59:39.181Z,61.85
2022-10-17T02:01:45.273Z,61.74
2022-10-17T02:03:51.354Z,61.71
2022-10-17T02:05:54.004Z,61.65
2022-10-17T02:07:56.651Z,62.15
2022-10-17T02:09:59.296Z,62.29
2022-10-17T02:12:28.893Z,61.77
2022-10-17T02:14:42.949Z,61.76
2022-10-17T02:16:52.808Z,61.90
2022-10-17T02:19:09.226Z,61.75
2022-10-17T02:21:19.878Z,61.82
2022-10-17T02:23:28.578Z,61.86
2022-10-17T02:25:41.438Z,61.87
2022-10-17T02:27:49.882Z,62.13
2022-10-17T02:29:59.659Z,61.98
2022-10-17T02:32:07.295Z,61.79
2022-10-17T02:34:17.574Z,61.99
2022-10-17T02:36:23.945Z,61.79
2022-10-17T02:38:28.977Z,61.88
2022-10-17T02:40:32.856Z,61.83
2022-10-17T02:42:36.346Z,61.84
2022-10-17T02:44:40.697Z,62.08
2022-10-17T02:46:46.255Z,61.82
2022-10-17T02:48:51.334Z,61.71
2022-10-17T02:51:03.529Z,61.85
2022-10-17T02:53:11.819Z,61.91
2022-10-17T02:55:19.013Z,61.96
2022-10-17T02:57:28.381Z,62.07
2022-10-17T03:01:42.358Z,61.81
2022-10-17T03:03:45.102Z,61.80
2022-10-17T03:05:47.794Z,61.96
2022-10-17T03:07:52.182Z,62.06
2022-10-17T03:09:54.817Z,61.93
2022-10-17T03:11:57.449Z,61.94
2022-10-17T03:14:00.039Z,62.03
2022-10-17T03:18:19.259Z,61.92
2022-10-17T03:20:21.901Z,62.01
2022-10-17T03:22:24.517Z,61.87
2022-10-17T03:24:28.749Z,61.74
2022-10-17T03:26:31.600Z,62.19
2022-10-17T03:28:35.076Z,61.61
2022-10-17T03:30:39.690Z,62.10
2022-10-17T03:32:42.292Z,62.24
2022-10-17T03:34:44.918Z,61.98
2022-10-17T03:36:48.030Z,62.04
2022-10-17T03:38:54.161Z,62.00
2022-10-17T03:40:58.260Z,61.94
2022-10-17T03:43:00.886Z,61.83
2022-10-17T03:45:04.289Z,62.08
2022-10-17T03:47:09.250Z,62.32
2022-10-17T03:49:14.453Z,62.11
2022-10-17T03:51:17.066Z,61.92
2022-10-17T03:53:20.238Z,61.96
2022-10-17T03:55:22.846Z,61.84
2022-10-17T03:57:27.149Z,61.79
2022-10-17T03:59:29.954Z,61.90
2022-10-17T04:01:32.632Z,61.60
2022-10-17T04:03:35.448Z,61.70
2022-10-17T04:05:38.294Z,61.42
2022-10-17T04:07:40.901Z,60.85
2022-10-17T04:09:43.457Z,60.75
2022-10-17T04:11:46.046Z,60.87
2022-10-17T04:13:54.452Z,60.34
2022-10-17T04:15:57.777Z,60.63
2022-10-17T04:18:00.421Z,60.46
2022-10-17T04:20:03.304Z,59.86
2022-10-17T04:22:08.388Z,60.04
2022-10-17T04:24:12.812Z,59.86
2022-10-17T04:26:15.428Z,59.64
2022-10-17T04:28:18.026Z,59.20
2022-10-17T04:30:22.022Z,59.29
2022-10-17T04:32:25.764Z,59.31
2022-10-17T04:34:28.346Z,59.13
2022-10-17T04:36:31.009Z,59.19
2022-10-17T04:38:34.643Z,59.08
2022-10-17T04:40:37.587Z,58.74
2022-10-17T04:42:40.223Z,59.10
2022-10-17T04:44:42.832Z,59.57
2022-10-17T04:46:46.810Z,59.57
2022-10-17T04:48:49.384Z,59.04
2022-10-17T04:50:55.999Z,59.22
2022-10-17T04:52:58.658Z,59.81
2022-10-17T04:55:01.272Z,60.06
2022-10-17T04:57:03.878Z,60.44
2022-10-17T04:59:06.501Z,60.18
2022-10-17T05:01:11.201Z,59.93
2022-10-17T05:03:15.525Z,59.70
2022-10-17T05:05:18.298Z,60.61
2022-10-17T05:07:21.659Z,61.11
2022-10-17T05:09:24.341Z,60.89
2022-10-17T05:11:28.832Z,60.46
2022-10-17T05:13:31.446Z,60.95
2022-10-17T05:17:56.310Z,60.80
2022-10-17T05:20:00.267Z,60.18
2022-10-17T05:22:02.888Z,60.28
2022-10-17T05:24:07.265Z,60.49
2022-10-17T05:26:09.895Z,60.00
2022-10-17T05:28:12.523Z,59.59
2022-10-17T05:30:15.139Z,59.81
